Time;durP1;ratioP1;P1;durP2;ratioP2;P2;SDS_P1;SDS_P2;PMS_P1;PMS_P2;Temp;Humidity;BMP_temperature;BMP_pressure;BME280_temperature;BME280_humidity;BME280_pressure;Samples;Min_cycle;Max_cycle;Signal;HPM_P1;HPM_P2
2022/09/04 00:02:03;;;;;;;20.60;12.13;;;;;;;40.88;35.23;101378.53;5014381;28;20985;-73
2022/09/04 00:04:50;;;;;;;17.33;9.53;;;;;;;40.69;35.30;101376.06;5030784;28;20927;-73
2022/09/04 00:07:36;;;;;;;14.23;6.70;;;;;;;40.47;35.92;101368.75;5030640;28;20938;-71
2022/09/04 00:10:21;;;;;;;28.27;7.73;;;;;;;40.45;35.89;101360.06;5030692;28;20511;-72
2022/09/04 00:13:05;;;;;;;14.97;8.40;;;;;;;40.44;35.69;101367.44;5015043;28;21007;-72
2022/09/04 00:15:53;;;;;;;15.80;6.40;;;;;;;40.50;35.58;101363.50;5030986;28;20922;-73
2022/09/04 00:18:32;;;;;;;28.23;8.80;;;;;;;40.71;36.10;101366.47;5031912;28;20411;-72
2022/09/04 00:21:10;;;;;;;15.43;7.07;;;;;;;40.62;35.31;101362.09;5030666;28;20516;-73
2022/09/04 00:23:57;;;;;;;17.17;6.60;;;;;;;40.51;35.97;101367.00;5030599;28;20959;-71
2022/09/04 00:26:49;;;;;;;25.03;8.27;;;;;;;40.40;36.29;101357.50;5030517;28;20481;-71
2022/09/04 00:29:24;;;;;;;19.13;6.70;;;;;;;40.44;36.03;101348.41;5030570;28;20439;-72
2022/09/04 00:32:05;;;;;;;14.90;8.17;;;;;;;40.41;36.51;101340.88;5030541;28;20943;-72
2022/09/04 00:34:54;;;;;;;17.87;8.03;;;;;;;39.92;36.85;101334.47;5019298;28;20426;-73
2022/09/04 00:37:28;;;;;;;21.73;7.40;;;;;;;39.60;37.67;101330.09;5050468;28;20399;-71
2022/09/04 00:40:02;;;;;;;14.20;8.07;;;;;;;39.89;36.86;101321.50;5030218;28;20431;-73
2022/09/04 00:42:36;;;;;;;29.20;8.37;;;;;;;40.01;37.11;101329.09;5030177;28;21376;-73
2022/09/04 00:45:27;;;;;;;24.80;8.63;;;;;;;39.93;36.86;101322.50;5030426;28;20494;-73
2022/09/04 00:48:09;;;;;;;21.90;9.00;;;;;;;40.10;36.83;101319.13;5030301;28;20415;-72
2022/09/04 00:50:41;;;;;;;13.80;6.97;;;;;;;39.85;37.42;101309.66;5030199;28;21050;-72
2022/09/04 00:53:25;;;;;;;10.10;6.23;;;;;;;39.49;37.60;101312.38;5030209;28;20449;-71
2022/09/04 00:56:34;;;;;;;22.93;8.87;;;;;;;39.67;37.59;101311.44;5031907;28;20411;-72
2022/09/04 00:59:14;;;;;;;14.80;7.23;;;;;;;39.60;37.68;101304.81;4972658;28;20801;-71
2022/09/04 01:01:43;;;;;;;13.87;7.20;;;;;;;39.56;37.58;101298.38;5035392;28;20831;-72
2022/09/04 01:04:28;;;;;;;22.00;10.80;;;;;;;39.67;37.52;101295.16;5034011;28;20432;-73
2022/09/04 01:07:32;;;;;;;18.13;8.60;;;;;;;39.73;37.72;101293.91;5033899;28;20494;-72
2022/09/04 01:10:18;;;;;;;16.73;7.30;;;;;;;39.88;37.50;101294.66;5021438;28;20423;-72
2022/09/04 01:12:55;;;;;;;15.77;7.23;;;;;;;39.89;37.33;101290.81;5034934;28;20990;-72
2022/09/04 01:15:40;;;;;;;17.07;7.10;;;;;;;39.99;36.59;101293.28;5033779;28;20433;-72
2022/09/04 01:18:14;;;;;;;17.30;6.73;;;;;;;39.82;37.18;101290.44;5033911;28;20423;-72
2022/09/04 01:20:55;;;;;;;19.20;5.70;;;;;;;39.45;37.46;101276.88;5033734;28;20447;-72
2022/09/04 01:23:36;;;;;;;24.87;7.37;;;;;;;39.42;37.15;101279.44;5034947;28;21035;-71
2022/09/04 01:26:29;;;;;;;13.83;5.47;;;;;;;39.42;37.36;101271.28;5035041;28;20431;-71
2022/09/04 01:29:21;;;;;;;13.87;6.90;;;;;;;39.38;37.35;101275.72;5033397;28;20475;-73
2022/09/04 01:31:52;;;;;;;19.40;9.17;;;;;;;39.52;37.52;101264.81;5034575;28;20404;-72
2022/09/04 01:34:39;;;;;;;17.67;6.10;;;;;;;39.75;36.83;101269.97;5035720;28;20427;-72
2022/09/04 01:37:27;;;;;;;18.03;9.00;;;;;;;40.04;36.46;101274.16;5036986;28;20940;-71
2022/09/04 01:40:15;;;;;;;11.37;6.17;;;;;;;40.05;36.36;101264.91;5053283;28;20426;-71
2022/09/04 01:42:55;;;;;;;17.27;6.50;;;;;;;39.88;36.73;101267.47;5052992;28;20509;-71
2022/09/04 01:45:45;;;;;;;17.80;6.27;;;;;;;40.06;36.19;101262.97;5054654;28;20402;-72
2022/09/04 01:48:16;;;;;;;13.10;6.20;;;;;;;39.98;36.03;101273.47;5053073;28;20439;-72
2022/09/04 01:50:48;;;;;;;15.33;6.03;;;;;;;39.95;36.52;101276.78;5037091;28;20411;-73
2022/09/04 01:53:25;;;;;;;20.67;9.10;;;;;;;39.92;36.48;101276.63;5037195;28;20410;-73
2022/09/04 01:56:21;;;;;;;13.67;6.30;;;;;;;40.36;35.84;101285.84;5020591;28;20461;-72
2022/09/04 01:59:00;;;;;;;27.20;9.30;;;;;;;39.89;36.60;101288.91;5052648;28;20423;-71
2022/09/04 02:01:34;;;;;;;23.40;7.70;;;;;;;39.84;36.73;101291.75;5052938;28;20462;-72
2022/09/04 02:04:00;;;;;;;25.10;10.30;;;;;;;39.77;36.76;101283.22;5052908;28;20421;-72
2022/09/04 02:06:49;;;;;;;22.33;7.40;;;;;;;40.14;36.40;101284.75;5052821;28;20810;-72
2022/09/04 02:09:47;;;;;;;16.23;6.63;;;;;;;40.06;36.75;101292.88;5036502;28;20423;-72
2022/09/04 02:12:49;;;;;;;23.77;7.57;;;;;;;39.82;36.84;101293.16;5053730;28;20477;-72
2022/09/04 02:15:21;;;;;;;15.83;8.23;;;;;;;40.10;36.89;101283.78;5033930;28;20437;-72
2022/09/04 02:17:57;;;;;;;13.43;7.17;;;;;;;40.17;36.07;101289.59;5052703;28;20502;-73
2022/09/04 02:20:27;;;;;;;21.97;6.90;;;;;;;40.32;35.60;101284.84;5036010;28;20947;-73
2022/09/04 02:23:11;;;;;;;19.73;8.20;;;;;;;40.19;36.16;101290.06;5052359;28;20482;-73
2022/09/04 02:26:25;;;;;;;15.83;7.10;;;;;;;40.05;35.95;101292.06;5052478;28;20433;-71
2022/09/04 02:29:02;;;;;;;21.03;8.93;;;;;;;40.41;35.43;101289.22;5039474;28;20442;-72
2022/09/04 02:31:28;;;;;;;17.67;6.67;;;;;;;40.16;35.82;101288.00;5052416;28;20514;-71
2022/09/04 02:34:20;;;;;;;16.87;6.43;;;;;;;39.99;36.05;101282.41;5053663;28;20494;-72
2022/09/04 02:37:06;;;;;;;13.87;5.90;;;;;;;39.57;36.70;101270.91;5053592;28;20414;-72
2022/09/04 02:39:59;;;;;;;23.10;6.47;;;;;;;40.26;35.90;101262.44;5052271;28;20805;-72
2022/09/04 02:42:41;;;;;;;27.17;7.37;;;;;;;40.05;35.96;101259.47;5035426;28;20462;-72
2022/09/04 02:45:36;;;;;;;20.70;9.03;;;;;;;39.93;36.46;101251.84;5053431;28;20399;-72
2022/09/04 02:48:20;;;;;;;27.30;8.60;;;;;;;39.99;36.79;101260.69;5052079;28;20541;-72
2022/09/04 02:51:12;;;;;;;13.20;5.37;;;;;;;39.93;36.44;101253.78;5052110;28;20422;-73
2022/09/04 02:53:51;;;;;;;20.67;7.50;;;;;;;39.84;36.65;101270.03;5052023;28;20929;-71
2022/09/04 02:56:20;;;;;;;23.20;10.17;;;;;;;39.68;37.50;101264.16;5053235;28;20931;-72
2022/09/04 02:59:14;;;;;;;21.77;7.20;;;;;;;39.78;36.58;101260.41;5051756;28;20482;-72
2022/09/04 03:01:56;;;;;;;15.40;6.53;;;;;;;39.44;36.97;101244.63;5051817;28;20458;-71
2022/09/04 03:04:26;;;;;;;21.97;6.30;;;;;;;39.23;37.28;101245.09;5051748;28;20426;-71
2022/09/04 03:07:16;;;;;;;17.87;5.50;;;;;;;38.98;38.27;101245.66;5051823;28;20442;-71
2022/09/04 03:10:39;;;;;;;18.60;7.00;;;;;;;39.01;38.53;101246.94;5051683;28;20493;-72
2022/09/04 03:13:24;;;;;;;17.93;5.83;;;;;;;39.37;37.76;101246.97;4994440;28;20483;-71
2022/09/04 03:16:16;;;;;;;12.80;8.00;;;;;;;39.57;37.45;101249.19;4994449;28;20420;-72
2022/09/04 03:18:54;;;;;;;17.77;7.03;;;;;;;39.53;37.58;101252.81;5024213;28;20423;-72
2022/09/04 03:21:31;;;;;;;19.07;6.47;;;;;;;39.47;37.94;101244.81;5051379;28;20917;-72
2022/09/04 03:24:12;;;;;;;15.83;6.70;;;;;;;39.29;38.33;101247.69;5034821;28;20422;-71
2022/09/04 03:26:46;;;;;;;17.80;7.07;;;;;;;39.42;38.41;101241.44;5051214;28;20461;-72
2022/09/04 03:29:35;;;;;;;17.77;6.43;;;;;;;39.27;38.43;101239.06;5051359;28;20418;-72
2022/09/04 03:32:15;;;;;;;11.37;5.60;;;;;;;39.45;38.21;101233.47;5051180;28;21005;-71
2022/09/04 03:34:56;;;;;;;18.43;6.07;;;;;;;38.56;38.77;101222.34;5050968;28;20441;-73
2022/09/04 03:37:29;;;;;;;17.17;6.43;;;;;;;38.79;38.35;101234.91;5051175;28;20874;-71
2022/09/04 03:40:20;;;;;;;19.23;6.40;;;;;;;38.62;38.63;101224.66;5050867;28;20410;-72
2022/09/04 03:43:15;;;;;;;16.80;6.90;;;;;;;38.39;39.20;101229.19;5050882;28;20505;-72
2022/09/04 03:46:00;;;;;;;16.30;6.63;;;;;;;38.63;39.19;101231.69;5050877;28;20478;-73
2022/09/04 03:48:39;;;;;;;19.80;8.17;;;;;;;38.97;39.06;101236.69;5052296;28;20908;-72
2022/09/04 03:51:28;;;;;;;22.30;9.47;;;;;;;39.03;38.54;101240.09;5048921;28;20588;-71
2022/09/04 03:54:22;;;;;;;17.47;6.23;;;;;;;39.19;38.24;101238.69;5035752;28;20970;-73
2022/09/04 03:57:06;;;;;;;22.57;7.90;;;;;;;39.10;37.98;101235.06;5030955;28;20928;-73
2022/09/04 03:59:58;;;;;;;41.53;7.87;;;;;;;38.78;38.43;101249.56;5030914;28;20431;-71
2022/09/04 04:02:55;;;;;;;22.67;7.50;;;;;;;38.95;38.23;101246.25;5030653;28;20817;-71
2022/09/04 04:05:37;;;;;;;24.93;6.20;;;;;;;39.08;38.32;101247.31;5016595;28;20462;-71
2022/09/04 04:08:22;;;;;;;18.30;5.47;;;;;;;39.11;38.27;101252.16;5041937;28;21021;-71
2022/09/04 04:11:17;;;;;;;31.73;7.73;;;;;;;39.12;38.09;101253.75;5031725;28;20443;-71
2022/09/04 04:13:59;;;;;;;32.43;7.77;;;;;;;39.09;38.36;101259.78;5030738;28;20415;-72
2022/09/04 04:17:04;;;;;;;14.33;7.00;;;;;;;38.91;38.23;101259.59;5047119;28;20857;-71
2022/09/04 04:19:39;;;;;;;20.97;8.10;;;;;;;39.22;37.66;101265.19;5030542;28;20534;-71
2022/09/04 04:22:14;;;;;;;16.80;6.97;;;;;;;39.18;37.84;101269.63;5030585;28;20469;-73
2022/09/04 04:25:01;;;;;;;18.23;8.30;;;;;;;39.12;37.87;101272.75;5030462;28;20426;-72
2022/09/04 04:27:32;;;;;;;22.07;8.23;;;;;;;39.09;38.26;101271.44;5031149;28;20442;-71
2022/09/04 04:30:13;;;;;;;21.70;7.30;;;;;;;39.25;38.21;101269.22;5030562;28;20424;-71
2022/09/04 04:32:59;;;;;;;25.60;8.80;;;;;;;39.32;38.26;101276.94;5033873;28;20419;-72
2022/09/04 04:35:31;;;;;;;22.30;7.87;;;;;;;38.68;38.26;101285.00;5045769;28;20503;-73
2022/09/04 04:38:16;;;;;;;20.20;6.90;;;;;;;38.36;39.04;101285.88;5055705;28;20745;-73
2022/09/04 04:41:08;;;;;;;20.13;8.10;;;;;;;38.70;38.61;101288.22;5071207;28;20433;-72
2022/09/04 04:44:02;;;;;;;14.33;7.77;;;;;;;38.89;38.52;101291.66;5046077;28;20539;-73
2022/09/04 04:46:33;;;;;;;19.67;9.27;;;;;;;39.13;37.90;101293.34;5071078;28;20505;-73
2022/09/04 04:49:31;;;;;;;33.63;10.60;;;;;;;39.30;37.54;101300.88;5070926;28;20506;-72
2022/09/04 04:52:17;;;;;;;23.80;10.03;;;;;;;39.19;38.00;101300.28;5055065;28;20517;-71
2022/09/04 04:54:53;;;;;;;18.87;8.63;;;;;;;38.94;38.17;101291.56;5054270;28;20426;-71
2022/09/04 04:57:31;;;;;;;27.53;10.07;;;;;;;39.08;37.85;101298.88;5070690;28;20433;-73
2022/09/04 05:00:35;;;;;;;23.27;11.40;;;;;;;38.91;38.12;101296.75;5055265;28;20450;-72
2022/09/04 05:03:33;;;;;;;27.27;9.57;;;;;;;39.04;38.14;101295.97;5054028;28;20473;-72
2022/09/04 05:06:21;;;;;;;22.87;8.00;;;;;;;38.93;38.62;101294.56;5054022;28;20418;-71
2022/09/04 05:08:47;;;;;;;22.07;7.87;;;;;;;39.16;38.18;101301.69;5070557;28;20491;-72
2022/09/04 05:11:21;;;;;;;22.80;8.00;;;;;;;39.50;37.75;101294.97;5070532;28;20898;-73
2022/09/04 05:14:24;;;;;;;23.97;9.20;;;;;;;39.32;37.71;101307.59;5055077;28;20464;-72
2022/09/04 05:17:27;;;;;;;17.60;8.90;;;;;;;39.94;36.72;101310.50;5037238;28;20429;-71
2022/09/04 05:20:11;;;;;;;27.20;9.53;;;;;;;39.86;37.06;101313.19;5070408;28;20906;-71
2022/09/04 05:22:59;;;;;;;25.90;9.17;;;;;;;39.79;37.41;101310.09;5054632;28;20833;-72
2022/09/04 05:25:34;;;;;;;12.30;7.27;;;;;;;39.80;37.12;101320.66;5070328;28;20423;-72
2022/09/04 05:28:06;;;;;;;18.00;7.47;;;;;;;39.73;36.97;101315.66;5070110;28;20418;-72
2022/09/04 05:30:33;;;;;;;21.10;9.00;;;;;;;39.49;36.93;101323.25;5054738;28;20434;-71
2022/09/04 05:33:08;;;;;;;25.93;9.37;;;;;;;39.82;36.75;101331.19;5070033;28;20430;-71
2022/09/04 05:35:47;;;;;;;19.40;10.23;;;;;;;39.76;37.31;101323.16;5070258;28;20430;-71
2022/09/04 05:38:31;;;;;;;30.03;12.50;;;;;;;39.64;37.79;101333.75;5054686;28;20403;-71
2022/09/04 05:41:05;;;;;;;37.33;10.87;;;;;;;39.34;38.24;101331.72;5053199;28;20410;-71
2022/09/04 05:44:00;;;;;;;27.03;11.70;;;;;;;39.17;38.49;101324.22;5053205;28;20608;-72
2022/09/04 05:46:44;;;;;;;20.00;8.73;;;;;;;39.05;38.64;101335.56;5054576;28;20540;-71
2022/09/04 05:49:32;;;;;;;23.70;8.53;;;;;;;38.84;39.10;101329.72;5069776;28;20446;-72
2022/09/04 05:52:41;;;;;;;26.13;8.70;;;;;;;38.96;38.95;101326.50;5070077;28;20529;-73
2022/09/04 05:55:30;;;;;;;29.40;9.87;;;;;;;39.01;38.78;101325.59;5035772;28;20430;-72
2022/09/04 05:58:12;;;;;;;25.93;10.10;;;;;;;38.28;40.16;101322.59;5052978;28;20925;-72
2022/09/04 06:00:59;;;;;;;18.60;8.47;;;;;;;38.96;38.77;101324.59;5054318;28;20481;-72
2022/09/04 06:03:34;;;;;;;19.30;7.50;;;;;;;38.99;38.77;101320.50;5054088;28;20450;-71
2022/09/04 06:06:11;;;;;;;18.13;9.77;;;;;;;39.19;38.80;101330.94;5069513;28;20484;-71
2022/09/04 06:08:39;;;;;;;17.63;8.10;;;;;;;38.78;39.04;101324.69;5069445;28;20426;-71
2022/09/04 06:11:08;;;;;;;17.27;10.53;;;;;;;39.05;38.74;101326.63;5068982;28;21032;-71
2022/09/04 06:13:43;;;;;;;23.30;8.63;;;;;;;38.89;39.11;101331.53;5052596;28;20840;-71
2022/09/04 06:16:12;;;;;;;23.30;8.63;;;;;;;38.76;39.10;101337.75;5069329;28;20992;-72
2022/09/04 06:19:16;;;;;;;15.90;7.30;;;;;;;38.64;39.41;101333.59;5053871;28;20895;-72
2022/09/04 06:22:22;;;;;;;23.13;8.70;;;;;;;39.25;37.93;101339.78;5044168;28;20470;-72
2022/09/04 06:25:23;;;;;;;18.63;9.50;;;;;;;38.11;38.66;101352.91;5053648;28;20918;-72
2022/09/04 06:27:49;;;;;;;22.20;10.13;;;;;;;37.65;40.04;101353.59;5068942;28;20427;-73
2022/09/04 06:30:16;;;;;;;24.13;9.23;;;;;;;38.18;38.99;101356.06;5052254;28;20456;-72
2022/09/04 06:33:12;;;;;;;31.23;10.13;;;;;;;38.41;38.82;101353.53;5052313;28;20430;-73
2022/09/04 06:35:56;;;;;;;20.70;8.90;;;;;;;38.93;37.72;101365.91;5053428;28;20442;-72
2022/09/04 06:38:52;;;;;;;15.20;7.50;;;;;;;39.12;38.19;101378.56;5052384;28;20426;-73
2022/09/04 06:41:34;;;;;;;28.93;10.10;;;;;;;38.88;38.19;101384.19;5051907;28;20425;-73
2022/09/04 06:44:12;;;;;;;16.60;9.93;;;;;;;39.32;37.77;101385.50;5052071;28;20419;-72
2022/09/04 06:47:03;;;;;;;22.63;8.90;;;;;;;39.06;37.94;101390.63;5068626;28;20418;-72
2022/09/04 06:50:04;;;;;;;16.87;7.20;;;;;;;39.15;37.40;101392.31;5068631;28;20427;-71
2022/09/04 06:52:48;;;;;;;16.20;8.00;;;;;;;38.85;38.36;101401.84;5068103;28;20446;-71
2022/09/04 06:55:32;;;;;;;28.93;10.30;;;;;;;38.89;38.38;101397.44;5049226;28;20423;-72
2022/09/04 06:58:23;;;;;;;22.60;10.47;;;;;;;39.09;38.11;101392.72;5034633;28;20836;-71
2022/09/04 07:00:54;;;;;;;33.37;11.00;;;;;;;39.34;37.66;101402.28;5048339;28;20422;-72
2022/09/04 07:03:48;;;;;;;26.80;10.20;;;;;;;39.19;37.79;101403.41;5051389;28;20485;-71
2022/09/04 07:06:29;;;;;;;45.90;13.27;;;;;;;39.43;38.09;101405.91;5050055;28;20415;-72
2022/09/04 07:09:46;;;;;;;21.63;9.33;;;;;;;39.64;37.44;101412.50;5051227;28;20580;-70
2022/09/04 07:12:43;;;;;;;25.93;9.63;;;;;;;39.65;37.60;101422.25;5008477;28;20478;-75
2022/09/04 07:15:35;;;;;;;20.87;8.33;;;;;;;39.50;37.42;101417.94;5051427;28;20811;-71
2022/09/04 07:18:13;;;;;;;28.87;10.67;;;;;;;39.14;38.32;101427.88;5051222;28;20995;-75
2022/09/04 07:21:05;;;;;;;24.37;11.70;;;;;;;38.77;38.90;101432.38;5032748;28;20767;-72
2022/09/04 07:23:53;;;;;;;19.00;10.53;;;;;;;39.18;38.74;101437.88;5000143;28;20463;-74
2022/09/04 07:26:46;;;;;;;34.50;10.63;;;;;;;39.26;38.55;101438.28;5031401;28;20427;-77
2022/09/04 07:29:26;;;;;;;21.57;10.87;;;;;;;39.39;38.37;101448.31;5031361;28;20563;-73
2022/09/04 07:32:01;;;;;;;25.77;12.97;;;;;;;39.46;38.41;101446.00;5046898;28;20414;-73
2022/09/04 07:34:39;;;;;;;32.10;11.33;;;;;;;39.52;38.80;101449.41;5051133;28;20475;-74
2022/09/04 07:37:28;;;;;;;23.93;9.10;;;;;;;39.79;37.88;101456.75;5053978;28;20430;-73
2022/09/04 07:40:22;;;;;;;17.80;9.47;;;;;;;39.93;37.70;101466.47;5058166;28;20444;-73
2022/09/04 07:43:22;;;;;;;33.63;10.40;;;;;;;39.98;37.70;101481.88;5063960;28;20462;-73
2022/09/04 07:46:29;;;;;;;23.40;10.23;;;;;;;39.97;37.28;101480.25;5060525;28;20437;-75
2022/09/04 07:49:21;;;;;;;22.80;9.27;;;;;;;40.16;37.42;101482.84;5056907;28;20423;-72
2022/09/04 07:52:02;;;;;;;21.27;10.60;;;;;;;40.11;37.06;101481.06;5047751;28;20911;-73
2022/09/04 07:54:41;;;;;;;21.10;9.30;;;;;;;40.37;36.37;101494.03;5062011;28;20425;-77
2022/09/04 07:57:09;;;;;;;19.00;10.83;;;;;;;40.24;36.42;101488.34;5055288;28;20422;-74
2022/09/04 08:00:02;;;;;;;21.87;8.97;;;;;;;40.45;35.98;101496.00;5049475;28;20403;-74
2022/09/04 08:02:55;;;;;;;17.27;8.37;;;;;;;39.76;37.13;101491.56;5046938;28;20465;-72
2022/09/04 08:05:36;;;;;;;20.93;9.43;;;;;;;39.82;37.20;101502.31;5046188;28;20436;-74
2022/09/04 08:08:36;;;;;;;25.23;10.17;;;;;;;40.06;36.87;101505.63;5047986;28;20411;-77
2022/09/04 08:11:14;;;;;;;26.40;12.27;;;;;;;40.32;36.62;101503.13;5046348;28;20458;-76
2022/09/04 08:14:08;;;;;;;19.63;8.33;;;;;;;40.40;37.04;101513.28;5045563;28;20426;-76
2022/09/04 08:16:43;;;;;;;29.20;10.70;;;;;;;40.58;36.19;101516.13;5050127;28;20463;-74
2022/09/04 08:19:14;;;;;;;22.73;9.30;;;;;;;40.55;36.35;101521.09;5048911;28;20430;-75
2022/09/04 08:21:43;;;;;;;33.90;10.30;;;;;;;40.62;36.60;101519.84;5057409;28;20469;-75
2022/09/04 08:24:37;;;;;;;29.70;10.97;;;;;;;40.73;36.06;101523.94;5062326;28;20416;-75
2022/09/04 08:27:40;;;;;;;27.40;11.33;;;;;;;40.62;36.32;101528.00;5060392;28;20406;-74
2022/09/04 08:30:12;;;;;;;25.67;10.80;;;;;;;40.66;36.21;101526.28;5059461;28;20438;-76
2022/09/04 08:32:59;;;;;;;35.10;12.07;;;;;;;40.58;36.24;101527.00;5071844;28;20402;-77
2022/09/04 08:35:35;;;;;;;30.57;11.53;;;;;;;39.88;37.12;101529.06;5067644;28;20426;-77
2022/09/04 08:38:33;;;;;;;17.93;10.47;;;;;;;40.35;35.95;101539.78;5051873;28;20830;-76
2022/09/04 08:41:14;;;;;;;31.60;12.00;;;;;;;40.10;36.32;101533.00;5045346;28;20418;-75
2022/09/04 08:43:52;;;;;;;30.10;11.40;;;;;;;40.42;35.89;101527.34;5051131;28;20521;-77
2022/09/04 08:46:57;;;;;;;24.60;13.53;;;;;;;40.19;36.77;101525.72;5049735;28;20434;-74
2022/09/04 08:49:32;;;;;;;16.93;9.73;;;;;;;40.28;36.43;101532.84;5068721;28;20422;-77
2022/09/04 08:52:01;;;;;;;29.60;11.80;;;;;;;40.34;36.42;101533.53;5070207;28;20406;-74
2022/09/04 08:55:01;;;;;;;24.73;10.13;;;;;;;39.94;37.10;101532.47;5046662;28;20420;-75
2022/09/04 08:58:05;;;;;;;32.20;10.80;;;;;;;40.23;36.71;101535.66;5013136;28;20427;-74
2022/09/04 09:00:46;;;;;;;17.80;10.67;;;;;;;40.24;36.46;101534.56;5031154;28;20522;-77
2022/09/04 09:03:42;;;;;;;26.10;11.27;;;;;;;40.08;37.31;101524.31;5029941;28;20458;-75
2022/09/04 09:06:29;;;;;;;24.53;10.90;;;;;;;40.37;36.86;101532.91;5031409;28;20447;-76
2022/09/04 09:09:07;;;;;;;32.17;13.33;;;;;;;39.67;37.76;101536.84;5029742;28;20967;-76
2022/09/04 09:12:07;;;;;;;26.20;11.97;;;;;;;40.16;37.51;101531.78;5029677;28;20474;-74
2022/09/04 09:14:58;;;;;;;23.13;10.87;;;;;;;40.24;37.09;101536.47;5037724;28;20422;-74
2022/09/04 09:18:08;;;;;;;23.03;9.80;;;;;;;40.09;37.53;101548.50;5052022;28;20507;-74
2022/09/04 09:20:55;;;;;;;18.43;8.40;;;;;;;40.50;37.10;101553.03;5072253;28;20417;-73
2022/09/04 09:23:43;;;;;;;26.67;11.73;;;;;;;40.47;36.87;101546.31;5061595;28;20947;-76
2022/09/04 09:26:29;;;;;;;22.47;11.67;;;;;;;40.46;36.85;101550.09;5054774;28;20410;-73
2022/09/04 09:29:17;;;;;;;36.70;12.83;;;;;;;40.51;36.44;101543.75;5052696;28;20391;-72
2022/09/04 09:32:15;;;;;;;28.00;12.17;;;;;;;40.46;36.93;101549.31;5053641;28;20411;-72
2022/09/04 09:35:07;;;;;;;22.90;10.63;;;;;;;40.45;36.96;101543.03;5053790;28;20851;-73
2022/09/04 09:37:55;;;;;;;18.00;9.63;;;;;;;40.64;36.44;101545.63;5036642;28;20461;-72
2022/09/04 09:40:41;;;;;;;21.93;10.50;;;;;;;40.54;36.85;101538.50;5050194;28;20947;-73
2022/09/04 09:43:23;;;;;;;25.10;10.13;;;;;;;40.50;36.36;101534.00;5049107;28;20465;-72
2022/09/04 09:46:07;;;;;;;24.70;12.03;;;;;;;40.04;37.39;101551.31;5050338;28;20972;-72
2022/09/04 09:48:41;;;;;;;28.47;14.10;;;;;;;39.69;38.02;101544.69;5055416;28;20411;-73
2022/09/04 09:51:37;;;;;;;29.07;12.43;;;;;;;39.58;38.65;101535.09;5072820;28;20422;-72
2022/09/04 09:54:21;;;;;;;23.73;12.27;;;;;;;40.11;37.98;101537.31;5074251;28;20422;-74
2022/09/04 09:57:00;;;;;;;27.40;13.60;;;;;;;40.27;37.04;101530.44;5061441;28;20453;-74
2022/09/04 09:59:44;;;;;;;23.10;11.53;;;;;;;40.38;36.82;101533.72;5048646;28;20828;-68
2022/09/04 10:02:15;;;;;;;21.80;9.40;;;;;;;40.23;36.96;101529.44;5031940;28;20450;-72
2022/09/04 10:04:50;;;;;;;24.50;11.40;;;;;;;40.65;36.87;101527.41;5051786;28;21000;-73
2022/09/04 10:52:11;;;;;;;18.97;11.77;;;;;;;40.55;36.10;101507.47;6042303;22;2645310;-73
2022/09/04 10:55:14;;;;;;;28.23;10.83;;;;;;;40.39;36.48;101508.13;6165256;23;20184;-74
2022/09/04 10:57:58;;;;;;;18.87;11.20;;;;;;;40.41;36.50;101501.28;6165017;23;20827;-73
2022/09/04 11:00:49;;;;;;;17.13;8.77;;;;;;;40.07;37.10;101488.19;6164630;23;20438;-74
2022/09/04 11:03:27;;;;;;;28.53;14.47;;;;;;;39.97;36.78;101488.41;6165209;23;20422;-73
2022/09/04 11:06:25;;;;;;;24.63;11.50;;;;;;;40.07;36.85;101490.91;6165561;23;20731;-73
2022/09/04 11:09:12;;;;;;;20.50;10.30;;;;;;;39.82;37.37;101483.31;6165573;23;20379;-73
2022/09/04 11:11:46;;;;;;;21.70;8.43;;;;;;;39.98;37.03;101479.94;6190598;23;20347;-72
2022/09/04 11:14:24;;;;;;;20.90;9.77;;;;;;;40.07;37.03;101476.53;6163777;23;20927;-73
2022/09/04 11:17:11;;;;;;;19.03;9.37;;;;;;;39.88;37.69;101472.00;6164167;23;20379;-74
2022/09/04 11:19:53;;;;;;;18.90;9.70;;;;;;;39.62;37.87;101458.19;6164149;23;20831;-73
2022/09/04 11:22:37;;;;;;;42.63;11.93;;;;;;;39.45;37.85;101457.97;6163750;23;20387;-73
2022/09/04 11:25:27;;;;;;;23.67;8.63;;;;;;;39.44;38.32;101453.66;6163074;23;20431;-74
2022/09/04 11:28:35;;;;;;;26.83;11.07;;;;;;;39.54;38.20;101445.31;6158597;23;20376;-74
2022/09/04 11:31:11;;;;;;;27.80;10.67;;;;;;;39.32;38.40;101453.34;6158323;23;20376;-75
2022/09/04 11:34:01;;;;;;;19.40;10.43;;;;;;;39.24;38.49;101444.00;6184595;23;20423;-73
2022/09/04 11:36:54;;;;;;;34.67;12.10;;;;;;;39.66;38.27;101442.09;6158343;23;20456;-75
2022/09/04 11:39:41;;;;;;;20.27;10.10;;;;;;;39.45;38.17;101430.81;6158301;23;20380;-78
2022/09/04 11:42:23;;;;;;;26.93;9.60;;;;;;;39.40;38.21;101431.72;6157942;23;20775;-76
2022/09/04 11:45:19;;;;;;;36.27;10.40;;;;;;;39.34;38.63;101419.34;6156338;23;20502;-72
2022/09/04 11:47:49;;;;;;;17.17;8.60;;;;;;;39.54;37.97;101401.88;6184445;23;20392;-77
2022/09/04 11:50:44;;;;;;;19.00;9.60;;;;;;;39.87;38.48;101398.97;6155788;23;20404;-74
2022/09/04 11:53:13;;;;;;;24.53;10.20;;;;;;;40.19;37.45;101389.81;6099871;23;20433;-79
2022/09/04 11:56:04;;;;;;;20.13;9.80;;;;;;;40.43;36.98;101394.94;6100003;23;20382;-79
2022/09/04 11:59:02;;;;;;;21.17;11.43;;;;;;;40.21;37.13;101388.41;6101050;23;20389;-91
2022/09/04 12:01:51;;;;;;;26.53;12.60;;;;;;;40.72;36.97;101399.94;6125379;23;20381;-78
2022/09/04 12:04:50;;;;;;;24.97;9.93;;;;;;;40.07;37.61;101382.22;6078632;23;20556;-81
2022/09/04 12:07:44;;;;;;;17.60;9.40;;;;;;;39.97;37.38;101385.19;6103059;23;20433;-88
2022/09/04 12:10:32;;;;;;;22.97;10.00;;;;;;;40.02;37.13;101380.44;6102407;23;20397;-77
2022/09/04 12:13:26;;;;;;;23.67;11.70;;;;;;;39.71;38.13;101374.88;6099339;23;20389;-76
2022/09/04 12:16:33;;;;;;;18.00;10.80;;;;;;;39.94;37.29;101372.19;6099152;23;20420;-76
2022/09/04 12:19:29;;;;;;;29.30;10.50;;;;;;;39.78;38.33;101379.91;6149047;23;20447;-76
2022/09/04 12:22:14;;;;;;;29.13;12.37;;;;;;;38.76;40.08;101381.16;6156109;23;20907;-71
2022/09/04 12:24:58;;;;;;;27.17;9.50;;;;;;;38.82;40.28;101367.19;6155663;23;20522;-74
2022/09/04 12:27:30;;;;;;;17.60;11.57;;;;;;;39.76;38.45;101366.63;6130792;23;20395;-77
2022/09/04 12:29:59;;;;;;;41.87;11.60;;;;;;;39.16;39.73;101368.72;6155287;23;20400;-76
2022/09/04 12:33:07;;;;;;;19.10;10.23;;;;;;;39.61;39.54;101353.41;6157174;23;20381;-75
2022/09/04 12:35:54;;;;;;;14.80;9.37;;;;;;;39.44;38.75;101339.63;6156463;23;20388;-76
2022/09/04 12:38:39;;;;;;;16.83;9.07;;;;;;;39.67;38.44;101330.44;6183709;23;20443;-75
2022/09/04 12:41:26;;;;;;;22.10;9.70;;;;;;;40.14;37.57;101322.00;6157140;23;20857;-77
2022/09/04 12:44:18;;;;;;;17.73;8.67;;;;;;;40.19;37.91;101327.31;6157208;23;20440;-76
2022/09/04 12:47:12;;;;;;;23.20;9.90;;;;;;;40.29;37.18;101322.44;6157562;23;20398;-76
2022/09/04 12:49:50;;;;;;;13.90;7.80;;;;;;;40.48;36.82;101316.00;6157027;23;20826;-76
2022/09/04 12:52:53;;;;;;;31.53;9.00;;;;;;;40.54;36.12;101325.63;6130858;23;20409;-75
2022/09/04 12:55:29;;;;;;;38.33;14.37;;;;;;;40.55;36.56;101332.66;6126702;23;20387;-73
2022/09/04 12:58:16;;;;;;;29.03;10.60;;;;;;;40.65;36.25;101321.50;6128135;23;20442;-75
2022/09/04 13:01:00;;;;;;;28.40;12.30;;;;;;;40.20;36.49;101324.28;6128558;23;20404;-74
2022/09/04 13:03:38;;;;;;;18.60;11.40;;;;;;;39.98;35.70;101316.94;6128334;23;20401;-75
2022/09/04 13:06:15;;;;;;;23.07;11.90;;;;;;;39.73;36.23;101310.22;6128012;23;20420;-75
2022/09/04 13:08:46;;;;;;;21.93;12.00;;;;;;;39.14;37.50;101313.94;6154135;23;20365;-75
2022/09/04 13:11:26;;;;;;;26.77;8.80;;;;;;;39.23;37.06;101318.38;6127143;23;20401;-75
2022/09/04 13:14:05;;;;;;;16.43;8.27;;;;;;;39.33;37.38;101309.19;6126463;23;20388;-75
2022/09/04 13:16:37;;;;;;;23.53;9.93;;;;;;;39.37;37.42;101312.91;6127472;23;20531;-75
2022/09/04 13:19:16;;;;;;;22.77;10.70;;;;;;;39.82;36.83;101302.13;6153934;23;20433;-75
2022/09/04 13:22:19;;;;;;;23.80;9.80;;;;;;;40.07;36.72;101297.19;6128068;23;20412;-74